www.cux-wetter.de
Wetterdaten: Montag, 08.02.2010
Datum Zeit Temp. A. Feuchte A. Luftdruck Regen Wind Richtung Richtung Sonnenschein Solar Taupunkt Windchill Windben
08.02.2010 00:02 -3,4 C 79 % 1020,5 hPa 0,0 l/m 7,8 km/h (2 Bft) O-SO 110 0 min 0 W/m -6,5 C -5,0 C 7,8 km/h (2 Bft)
08.02.2010 00:07 -3,4 C 79 % 1020,5 hPa 0,0 l/m 10,9 km/h (2 Bft) O-SO 110 0 min 0 W/m -6,5 C -8,0 C 10,9 km/h (2 Bft)
08.02.2010 00:12 -3,4 C 79 % 1020,5 hPa 0,0 l/m 13,3 km/h (3 Bft) O 95 0 min 0 W/m -6,5 C -9,9 C 13,3 km/h (3 Bft)
08.02.2010 00:17 -3,4 C 79 % 1020,5 hPa 0,0 l/m 15,1 km/h (3 Bft) O-SO 110 0 min 0 W/m -6,5 C -11,2 C 15,1 km/h (3 Bft)
08.02.2010 00:22 -3,3 C 79 % 1020,5 hPa 0,0 l/m 12,1 km/h (2 Bft) O-SO 105 0 min 0 W/m -6,4 C -8,9 C 12,1 km/h (2 Bft)
08.02.2010 00:27 -3,2 C 79 % 1020,5 hPa 0,0 l/m 11,9 km/h (2 Bft) O-SO 110 0 min 0 W/m -6,3 C -8,6 C 11,9 km/h (2 Bft)
08.02.2010 00:32 -3,2 C 79 % 1020,5 hPa 0,0 l/m 17,2 km/h (3 Bft) O 100 0 min 0 W/m -6,3 C -12,2 C 17,2 km/h (3 Bft)
08.02.2010 00:37 -3,3 C 79 % 1020,5 hPa 0,0 l/m 16,9 km/h (3 Bft) O 100 0 min 0 W/m -6,4 C -12,2 C 16,9 km/h (3 Bft)
08.02.2010 00:42 -3,3 C 79 % 1019,5 hPa 0,0 l/m 13,6 km/h (3 Bft) SO 125 0 min 0 W/m -6,4 C -10,0 C 13,6 km/h (3 Bft)
08.02.2010 00:47 -3,2 C 79 % 1020,5 hPa 0,0 l/m 12,2 km/h (2 Bft) SO 125 0 min 0 W/m -6,3 C -8,8 C 12,2 km/h (2 Bft)
08.02.2010 00:52 -3,2 C 79 % 1019,5 hPa 0,0 l/m 8,9 km/h (2 Bft) O 85 0 min 0 W/m -6,3 C -5,9 C 8,9 km/h (2 Bft)
08.02.2010 00:57 -3,1 C 79 % 1019,5 hPa 0,0 l/m 16,0 km/h (3 Bft) O 100 0 min 0 W/m -6,2 C -11,4 C 16,0 km/h (3 Bft)
08.02.2010 01:02 -3,2 C 79 % 1019,5 hPa 0,0 l/m 12,9 km/h (3 Bft) O-SO 105 0 min 0 W/m -6,3 C -9,4 C 12,9 km/h (3 Bft)
08.02.2010 01:07 -3,2 C 79 % 1019,5 hPa 0,0 l/m 17,3 km/h (3 Bft) O 95 0 min 0 W/m -6,3 C -12,3 C 17,3 km/h (3 Bft)
08.02.2010 01:12 -3,2 C 79 % 1019,5 hPa 0,0 l/m 18,7 km/h (3 Bft) O-SO 105 0 min 0 W/m -6,3 C -13,1 C 18,7 km/h (3 Bft)
08.02.2010 01:17 -3,2 C 79 % 1019,5 hPa 0,0 l/m 16,5 km/h (3 Bft) O-SO 105 0 min 0 W/m -6,3 C -11,8 C 16,5 km/h (3 Bft)
08.02.2010 01:22 -3,2 C 79 % 1019,5 hPa 0,0 l/m 14,1 km/h (3 Bft) O-SO 115 0 min 0 W/m -6,3 C -10,2 C 14,1 km/h (3 Bft)
08.02.2010 01:27 -3,2 C 79 % 1019,5 hPa 0,0 l/m 17,3 km/h (3 Bft) O-SO 105 0 min 0 W/m -6,3 C -12,3 C 17,3 km/h (3 Bft)
08.02.2010 01:32 -3,2 C 79 % 1019,5 hPa 0,0 l/m 14,9 km/h (3 Bft) O 95 0 min 0 W/m -6,3 C -10,8 C 14,9 km/h (3 Bft)
08.02.2010 01:37 -3,2 C 79 % 1019,5 hPa 0,0 l/m 11,8 km/h (2 Bft) O-SO 105 0 min 0 W/m -6,3 C -8,5 C 11,8 km/h (2 Bft)
08.02.2010 01:42 -3,3 C 79 % 1019,5 hPa 0,0 l/m 19,7 km/h (3 Bft) O-SO 105 0 min 0 W/m -6,4 C -13,7 C 19,7 km/h (3 Bft)
08.02.2010 01:47 -3,4 C 78 % 1019,5 hPa 0,0 l/m 13,8 km/h (3 Bft) O-SO 105 0 min 0 W/m -6,7 C -10,3 C 13,8 km/h (3 Bft)
08.02.2010 01:52 -3,5 C 79 % 1019,5 hPa 0,0 l/m 11,1 km/h (2 Bft) SO 135 0 min 0 W/m -6,6 C -8,3 C 11,1 km/h (2 Bft)
08.02.2010 01:57 -3,6 C 79 % 1019,5 hPa 0,0 l/m 22,3 km/h (4 Bft) O-SO 105 0 min 0 W/m -6,7 C -15,4 C 22,3 km/h (4 Bft)
08.02.2010 02:02 -3,7 C 79 % 1019,5 hPa 0,0 l/m 16,6 km/h (3 Bft) SO 125 0 min 0 W/m -6,8 C -12,5 C 16,6 km/h (3 Bft)
08.02.2010 02:07 -3,7 C 79 % 1019,5 hPa 0,0 l/m 22,9 km/h (4 Bft) O-SO 115 0 min 0 W/m -6,8 C -15,8 C 22,9 km/h (4 Bft)
08.02.2010 02:12 -3,8 C 79 % 1019,5 hPa 0,0 l/m 15,8 km/h (3 Bft) O-SO 105 0 min 0 W/m -6,9 C -12,1 C 15,8 km/h (3 Bft)
08.02.2010 02:17 -3,9 C 79 % 1019,5 hPa 0,0 l/m 16,4 km/h (3 Bft) O-SO 105 0 min 0 W/m -7,0 C -12,6 C 16,4 km/h (3 Bft)
08.02.2010 02:22 -4,0 C 79 % 1019,5 hPa 0,0 l/m 14,1 km/h (3 Bft) O 95 0 min 0 W/m -7,1 C -11,2 C 14,1 km/h (3 Bft)
08.02.2010 02:27 -4,0 C 79 % 1019,5 hPa 0,0 l/m 19,8 km/h (3 Bft) O-SO 115 0 min 0 W/m -7,1 C -14,7 C 19,8 km/h (3 Bft)
08.02.2010 02:32 -4,0 C 79 % 1019,5 hPa 0,0 l/m 8,3 km/h (2 Bft) O-SO 115 0 min 0 W/m -7,1 C -6,2 C 8,3 km/h (2 Bft)
08.02.2010 02:37 -4,0 C 79 % 1019,5 hPa 0,0 l/m 14,5 km/h (3 Bft) O-SO 115 0 min 0 W/m -7,1 C -11,5 C 14,5 km/h (3 Bft)
08.02.2010 02:42 -4,0 C 79 % 1019,5 hPa 0,0 l/m 12,8 km/h (3 Bft) O-SO 105 0 min 0 W/m -7,1 C -10,2 C 12,8 km/h (3 Bft)
08.02.2010 02:47 -4,0 C 79 % 1019,5 hPa 0,0 l/m 10,5 km/h (2 Bft) O 90 0 min 0 W/m -7,1 C -8,3 C 10,5 km/h (2 Bft)
08.02.2010 02:52 -4,1 C 79 % 1019,5 hPa 0,0 l/m 16,0 km/h (3 Bft) SO 125 0 min 0 W/m -7,2 C -12,6 C 16,0 km/h (3 Bft)
08.02.2010 02:57 -4,2 C 79 % 1019,5 hPa 0,0 l/m 14,5 km/h (3 Bft) O-SO 115 0 min 0 W/m -7,3 C -11,7 C 14,5 km/h (3 Bft)
08.02.2010 03:02 -4,2 C 79 % 1019,5 hPa 0,0 l/m 14,5 km/h (3 Bft) O-SO 115 0 min 0 W/m -7,3 C -11,7 C 14,5 km/h (3 Bft)
08.02.2010 03:07 -4,2 C 79 % 1019,5 hPa 0,0 l/m 9,7 km/h (2 Bft) O 90 0 min 0 W/m -7,3 C -7,8 C 9,7 km/h (2 Bft)
08.02.2010 03:12 -4,2 C 79 % 1018,5 hPa 0,0 l/m 14,5 km/h (3 Bft) O 85 0 min 0 W/m -7,3 C -11,7 C 14,5 km/h (3 Bft)
08.02.2010 03:17 -4,2 C 80 % 1018,5 hPa 0,0 l/m 11,5 km/h (2 Bft) O 95 0 min 0 W/m -7,1 C -9,4 C 11,5 km/h (2 Bft)
08.02.2010 03:22 -4,2 C 80 % 1018,5 hPa 0,0 l/m 19,6 km/h (3 Bft) O-SO 110 0 min 0 W/m -7,1 C -14,8 C 19,6 km/h (3 Bft)
08.02.2010 03:27 -4,3 C 79 % 1018,5 hPa 0,0 l/m 11,1 km/h (2 Bft) O 85 0 min 0 W/m -7,4 C -9,2 C 11,1 km/h (2 Bft)
08.02.2010 03:32 -4,2 C 79 % 1018,5 hPa 0,0 l/m 16,5 km/h (3 Bft) SO 125 0 min 0 W/m -7,3 C -13,0 C 16,5 km/h (3 Bft)
08.02.2010 03:37 -4,2 C 79 % 1018,5 hPa 0,0 l/m 13,8 km/h (3 Bft) SO 125 0 min 0 W/m -7,3 C -11,2 C 13,8 km/h (3 Bft)
08.02.2010 03:42 -4,2 C 79 % 1018,5 hPa 0,0 l/m 16,6 km/h (3 Bft) O 90 0 min 0 W/m -7,3 C -13,1 C 16,6 km/h (3 Bft)
08.02.2010 03:47 -4,3 C 79 % 1018,5 hPa 0,0 l/m 15,2 km/h (3 Bft) O 90 0 min 0 W/m -7,4 C -12,3 C 15,2 km/h (3 Bft)
08.02.2010 03:52 -4,2 C 78 % 1018,5 hPa 0,0 l/m 20,4 km/h (4 Bft) O-SO 105 0 min 0 W/m -7,4 C -15,3 C 20,4 km/h (4 Bft)
08.02.2010 03:57 -4,3 C 79 % 1018,5 hPa 0,0 l/m 22,0 km/h (4 Bft) O 80 0 min 0 W/m -7,4 C -16,2 C 22,0 km/h (4 Bft)
08.02.2010 04:02 -4,4 C 78 % 1018,5 hPa 0,0 l/m 22,0 km/h (4 Bft) O 80 0 min 0 W/m -7,6 C -16,3 C 22,0 km/h (4 Bft)
08.02.2010 04:07 -4,6 C 79 % 1018,5 hPa 0,0 l/m 11,9 km/h (2 Bft) O 85 0 min 0 W/m -7,7 C -10,2 C 11,9 km/h (2 Bft)
08.02.2010 04:12 -4,6 C 79 % 1018,5 hPa 0,0 l/m 19,1 km/h (3 Bft) O-NO 70 0 min 0 W/m -7,7 C -15,1 C 19,1 km/h (3 Bft)
08.02.2010 04:17 -4,6 C 79 % 1018,5 hPa 0,0 l/m 21,3 km/h (4 Bft) O-SO 120 0 min 0 W/m -7,7 C -16,2 C 21,3 km/h (4 Bft)
08.02.2010 04:22 -4,8 C 79 % 1018,5 hPa 0,0 l/m 13,7 km/h (3 Bft) SO 130 0 min 0 W/m -7,9 C -11,9 C 13,7 km/h (3 Bft)
08.02.2010 04:27 -4,9 C 79 % 1018,5 hPa 0,0 l/m 18,0 km/h (3 Bft) O-SO 115 0 min 0 W/m -8,0 C -14,8 C 18,0 km/h (3 Bft)
08.02.2010 04:32 -5,0 C 78 % 1018,5 hPa 0,0 l/m 19,7 km/h (3 Bft) O-SO 105 0 min 0 W/m -8,2 C -15,9 C 19,7 km/h (3 Bft)
08.02.2010 04:37 -5,1 C 78 % 1018,5 hPa 0,0 l/m 16,6 km/h (3 Bft) O-SO 110 0 min 0 W/m -8,3 C -14,2 C 16,6 km/h (3 Bft)
08.02.2010 04:42 -5,4 C 78 % 1018,5 hPa 0,0 l/m 18,7 km/h (3 Bft) O-SO 115 0 min 0 W/m -8,6 C -15,9 C 18,7 km/h (3 Bft)
08.02.2010 04:47 -5,5 C 78 % 1018,5 hPa 0,0 l/m 15,5 km/h (3 Bft) SO 125 0 min 0 W/m -8,7 C -14,0 C 15,5 km/h (3 Bft)
08.02.2010 04:52 -5,5 C 78 % 1018,5 hPa 0,0 l/m 10,6 km/h (2 Bft) O-SO 105 0 min 0 W/m -8,7 C -10,1 C 10,6 km/h (2 Bft)
08.02.2010 04:57 -5,5 C 78 % 1018,5 hPa 0,0 l/m 14,0 km/h (3 Bft) O-SO 115 0 min 0 W/m -8,7 C -12,9 C 14,0 km/h (3 Bft)
08.02.2010 05:03 -5,5 C 79 % 1018,5 hPa 0,0 l/m 14,0 km/h (3 Bft) O-SO 115 0 min 0 W/m -8,5 C -12,9 C 14,0 km/h (3 Bft)
08.02.2010 05:08 -5,5 C 78 % 1017,5 hPa 0,0 l/m 16,9 km/h (3 Bft) S-SO 155 0 min 0 W/m -8,7 C -14,9 C 16,9 km/h (3 Bft)
08.02.2010 05:13 -5,6 C 79 % 1017,5 hPa 0,0 l/m 18,5 km/h (3 Bft) S-SO 150 0 min 0 W/m -8,6 C -16,0 C 18,5 km/h (3 Bft)
08.02.2010 05:18 -5,7 C 79 % 1017,5 hPa 0,0 l/m 13,1 km/h (3 Bft) SO 145 0 min 0 W/m -8,7 C -12,5 C 13,1 km/h (3 Bft)
08.02.2010 05:23 -5,7 C 80 % 1017,5 hPa 0,0 l/m 10,7 km/h (2 Bft) S-SO 160 0 min 0 W/m -8,6 C -10,4 C 10,7 km/h (2 Bft)
08.02.2010 05:28 -5,6 C 80 % 1017,5 hPa 0,0 l/m 10,7 km/h (2 Bft) S-SO 160 0 min 0 W/m -8,5 C -10,3 C 10,7 km/h (2 Bft)
08.02.2010 05:33 -5,7 C 80 % 1017,5 hPa 0,0 l/m 13,2 km/h (3 Bft) SO 145 0 min 0 W/m -8,6 C -12,5 C 13,2 km/h (3 Bft)
08.02.2010 05:38 -5,5 C 80 % 1017,5 hPa 0,0 l/m 16,8 km/h (3 Bft) SO 135 0 min 0 W/m -8,4 C -14,9 C 16,8 km/h (3 Bft)
08.02.2010 05:43 -5,5 C 80 % 1017,5 hPa 0,0 l/m 11,5 km/h (2 Bft) SO 145 0 min 0 W/m -8,4 C -10,9 C 11,5 km/h (2 Bft)
08.02.2010 05:48 -5,5 C 80 % 1017,5 hPa 0,0 l/m 10,5 km/h (2 Bft) O-SO 105 0 min 0 W/m -8,4 C -10,0 C 10,5 km/h (2 Bft)
08.02.2010 05:53 -5,5 C 80 % 1017,5 hPa 0,0 l/m 13,4 km/h (3 Bft) O-SO 115 0 min 0 W/m -8,4 C -12,5 C 13,4 km/h (3 Bft)
08.02.2010 05:58 -5,4 C 80 % 1017,5 hPa 0,0 l/m 10,7 km/h (2 Bft) SO 140 0 min 0 W/m -8,3 C -10,1 C 10,7 km/h (2 Bft)
08.02.2010 06:03 -5,3 C 80 % 1017,5 hPa 0,0 l/m 12,1 km/h (2 Bft) SO 125 0 min 0 W/m -8,2 C -11,2 C 12,1 km/h (2 Bft)
08.02.2010 06:08 -5,3 C 80 % 1017,5 hPa 0,0 l/m 11,4 km/h (2 Bft) SO 130 0 min 0 W/m -8,2 C -10,6 C 11,4 km/h (2 Bft)
08.02.2010 06:13 -5,1 C 80 % 1017,5 hPa 0,0 l/m 9,1 km/h (2 Bft) O-SO 105 0 min 0 W/m -8,0 C -8,2 C 9,1 km/h (2 Bft)
08.02.2010 06:18 -5,3 C 80 % 1017,5 hPa 0,0 l/m 11,9 km/h (2 Bft) SO 140 0 min 0 W/m -8,2 C -11,0 C 11,9 km/h (2 Bft)
08.02.2010 06:23 -5,1 C 80 % 1017,5 hPa 0,0 l/m 15,0 km/h (3 Bft) SO 130 0 min 0 W/m -8,0 C -13,2 C 15,0 km/h (3 Bft)
08.02.2010 06:28 -5,0 C 80 % 1016,5 hPa 0,0 l/m 10,1 km/h (2 Bft) SO 135 0 min 0 W/m -7,9 C -9,1 C 10,1 km/h (2 Bft)
08.02.2010 06:33 -5,0 C 81 % 1016,5 hPa 0,0 l/m 16,4 km/h (3 Bft) O-SO 120 0 min 0 W/m -7,7 C -14,0 C 16,4 km/h (3 Bft)
08.02.2010 06:38 -4,9 C 80 % 1016,5 hPa 0,0 l/m 14,1 km/h (3 Bft) SO 135 0 min 0 W/m -7,8 C -12,3 C 14,1 km/h (3 Bft)
08.02.2010 06:43 -4,9 C 80 % 1016,5 hPa 0,0 l/m 15,0 km/h (3 Bft) SO 140 0 min 0 W/m -7,8 C -12,9 C 15,0 km/h (3 Bft)
08.02.2010 06:48 -4,9 C 80 % 1016,5 hPa 0,0 l/m 13,2 km/h (3 Bft) SO 135 0 min 0 W/m -7,8 C -11,6 C 13,2 km/h (3 Bft)
08.02.2010 06:53 -5,0 C 80 % 1016,5 hPa 0,0 l/m 16,9 km/h (3 Bft) SO 145 0 min 0 W/m -7,9 C -14,3 C 16,9 km/h (3 Bft)
08.02.2010 06:58 -4,9 C 81 % 1016,5 hPa 0,0 l/m 13,6 km/h (3 Bft) SO 135 0 min 0 W/m -7,6 C -11,9 C 13,6 km/h (3 Bft)
08.02.2010 07:03 -4,8 C 81 % 1016,5 hPa 0,0 l/m 13,7 km/h (3 Bft) SO 140 0 min 0 W/m -7,5 C -11,9 C 13,7 km/h (3 Bft)
08.02.2010 07:08 -4,8 C 81 % 1016,5 hPa 0,0 l/m 11,4 km/h (2 Bft) SO 140 0 min 0 W/m -7,5 C -10,0 C 11,4 km/h (2 Bft)
08.02.2010 07:13 -4,7 C 81 % 1016,5 hPa 0,0 l/m 15,3 km/h (3 Bft) SO 140 0 min 0 W/m -7,4 C -12,9 C 15,3 km/h (3 Bft)
08.02.2010 07:18 -4,6 C 80 % 1016,5 hPa 0,0 l/m 10,5 km/h (2 Bft) SO 135 0 min 0 W/m -7,5 C -9,0 C 10,5 km/h (2 Bft)
08.02.2010 07:23 -4,6 C 80 % 1016,5 hPa 0,0 l/m 12,6 km/h (3 Bft) S-SO 155 0 min 0 W/m -7,5 C -10,8 C 12,6 km/h (3 Bft)
08.02.2010 07:28 -4,6 C 80 % 1016,5 hPa 0,0 l/m 19,7 km/h (3 Bft) SO 135 0 min 0 W/m -7,5 C -15,4 C 19,7 km/h (3 Bft)
08.02.2010 07:33 -4,6 C 80 % 1016,5 hPa 0,0 l/m 13,2 km/h (3 Bft) S-SO 155 0 min 0 W/m -7,5 C -11,3 C 13,2 km/h (3 Bft)
08.02.2010 07:38 -4,6 C 80 % 1016,5 hPa 0,0 l/m 6,7 km/h (2 Bft) SO 145 0 min 0 W/m -7,5 C -4,9 C 6,7 km/h (2 Bft)
08.02.2010 07:43 -4,4 C 80 % 1016,5 hPa 0,0 l/m 9,2 km/h (2 Bft) SO 135 0 min 0 W/m -7,3 C -7,5 C 9,2 km/h (2 Bft)
08.02.2010 07:48 -4,3 C 79 % 1016,5 hPa 0,0 l/m 11,5 km/h (2 Bft) S-SO 150 0 min 0 W/m -7,4 C -9,5 C 11,5 km/h (2 Bft)
08.02.2010 07:53 -4,3 C 80 % 1016,5 hPa 0,0 l/m 14,6 km/h (3 Bft) O-SO 115 0 min 0 W/m -7,2 C -11,9 C 14,6 km/h (3 Bft)
08.02.2010 07:58 -4,3 C 79 % 1016,5 hPa 0,0 l/m 13,5 km/h (3 Bft) SO 130 0 min 0 W/m -7,4 C -11,1 C 13,5 km/h (3 Bft)
08.02.2010 08:03 -4,3 C 79 % 1016,5 hPa 0,0 l/m 15,7 km/h (3 Bft) O-SO 120 0 min 0 W/m -7,4 C -12,7 C 15,7 km/h (3 Bft)
08.02.2010 08:08 -4,2 C 79 % 1016,5 hPa 0,0 l/m 13,8 km/h (3 Bft) O 95 0 min 0 W/m -7,3 C -11,2 C 13,8 km/h (3 Bft)
08.02.2010 08:13 -4,3 C 79 % 1016,5 hPa 0,0 l/m 10,8 km/h (2 Bft) SO 140 0 min 0 W/m -7,4 C -8,9 C 10,8 km/h (2 Bft)
08.02.2010 08:18 -4,2 C 79 % 1016,5 hPa 0,0 l/m 1,7 km/h (1 Bft) O-SO 105 0 min 0 W/m -7,3 C -4,2 C 1,7 km/h (1 Bft)
08.02.2010 08:23 -4,1 C 79 % 1016,5 hPa 0,0 l/m 11,3 km/h (2 Bft) SO 125 0 min 0 W/m -7,2 C -9,1 C 11,3 km/h (2 Bft)
08.02.2010 08:28 -4,0 C 78 % 1016,5 hPa 0,0 l/m 13,3 km/h (3 Bft) SO 130 0 min 0 W/m -7,3 C -10,6 C 13,3 km/h (3 Bft)
08.02.2010 08:32 -3,8 C 78 % 1016,5 hPa 0,0 l/m 10,5 km/h (2 Bft) O 95 0 min 0 W/m -7,1 C -8,1 C 10,5 km/h (2 Bft)
08.02.2010 08:38 -3,8 C 78 % 1016,5 hPa 0,0 l/m 13,5 km/h (3 Bft) SO 140 0 min 0 W/m -7,1 C -10,5 C 13,5 km/h (3 Bft)
08.02.2010 08:43 -3,8 C 78 % 1016,5 hPa 0,0 l/m 11,1 km/h (2 Bft) O-SO 120 0 min 0 W/m -7,1 C -8,6 C 11,1 km/h (2 Bft)
08.02.2010 08:48 -3,6 C 78 % 1016,5 hPa 0,0 l/m 11,7 km/h (2 Bft) O-SO 115 0 min 0 W/m -6,9 C -8,9 C 11,7 km/h (2 Bft)
08.02.2010 08:53 -3,6 C 78 % 1016,5 hPa 0,0 l/m 12,0 km/h (2 Bft) O-SO 115 0 min 0 W/m -6,9 C -9,1 C 12,0 km/h (2 Bft)
08.02.2010 08:58 -3,6 C 78 % 1016,5 hPa 0,0 l/m 11,5 km/h (2 Bft) O-SO 105 0 min 0 W/m -6,9 C -8,7 C 11,5 km/h (2 Bft)
08.02.2010 09:03 -3,5 C 77 % 1016,5 hPa 0,0 l/m 14,0 km/h (3 Bft) O-SO 105 0 min 0 W/m -6,9 C -10,5 C 14,0 km/h (3 Bft)
08.02.2010 09:08 -3,4 C 77 % 1016,5 hPa 0,0 l/m 11,0 km/h (2 Bft) O-SO 105 0 min 0 W/m -6,8 C -8,1 C 11,0 km/h (2 Bft)
08.02.2010 09:13 -3,4 C 77 % 1016,5 hPa 0,0 l/m 17,7 km/h (3 Bft) O-SO 120 0 min 0 W/m -6,8 C -12,8 C 17,7 km/h (3 Bft)
08.02.2010 09:18 -3,4 C 78 % 1016,5 hPa 0,0 l/m 3,3 km/h (1 Bft) O-SO 105 0 min 0 W/m -6,7 C -3,4 C 3,3 km/h (1 Bft)
08.02.2010 09:23 -3,3 C 78 % 1016,5 hPa 0,0 l/m 14,7 km/h (3 Bft) O 95 0 min 0 W/m -6,6 C -10,8 C 14,7 km/h (3 Bft)
08.02.2010 09:28 -3,4 C 78 % 1016,5 hPa 0,0 l/m 13,5 km/h (3 Bft) O-NO 60 0 min 0 W/m -6,7 C -10,1 C 13,5 km/h (3 Bft)
08.02.2010 09:33 -3,4 C 78 % 1016,5 hPa 0,0 l/m 10,0 km/h (2 Bft) O-NO 70 0 min 0 W/m -6,7 C -7,2 C 10,0 km/h (2 Bft)
08.02.2010 09:38 -3,4 C 78 % 1016,5 hPa 0,0 l/m 7,9 km/h (2 Bft) O 80 0 min 0 W/m -6,7 C -5,1 C 7,9 km/h (2 Bft)
08.02.2010 09:43 -3,3 C 79 % 1016,5 hPa 0,0 l/m 11,8 km/h (2 Bft) O 80 0 min 0 W/m -6,4 C -8,6 C 11,8 km/h (2 Bft)
08.02.2010 09:48 -3,2 C 79 % 1016,5 hPa 0,0 l/m 13,9 km/h (3 Bft) O-NO 75 0 min 0 W/m -6,3 C -10,1 C 13,9 km/h (3 Bft)
08.02.2010 09:53 -3,2 C 79 % 1016,5 hPa 0,0 l/m 12,8 km/h (3 Bft) O-NO 75 0 min 0 W/m -6,3 C -9,3 C 12,8 km/h (3 Bft)
08.02.2010 09:58 -3,2 C 79 % 1016,5 hPa 0,0 l/m 15,1 km/h (3 Bft) O 90 0 min 0 W/m -6,3 C -10,9 C 15,1 km/h (3 Bft)
08.02.2010 10:03 -3,1 C 79 % 1016,5 hPa 0,0 l/m 13,3 km/h (3 Bft) O 80 0 min 0 W/m -6,2 C -9,6 C 13,3 km/h (3 Bft)
08.02.2010 10:08 -3,0 C 79 % 1015,5 hPa 0,0 l/m 14,4 km/h (3 Bft) O-NO 75 0 min 0 W/m -6,1 C -10,2 C 14,4 km/h (3 Bft)
08.02.2010 10:13 -3,0 C 79 % 1015,5 hPa 0,0 l/m 15,1 km/h (3 Bft) O-NO 70 0 min 0 W/m -6,1 C -10,7 C 15,1 km/h (3 Bft)
08.02.2010 10:18 -3,0 C 78 % 1015,5 hPa 0,0 l/m 20,2 km/h (4 Bft) O 90 0 min 0 W/m -6,3 C -13,6 C 20,2 km/h (4 Bft)
08.02.2010 10:23 -3,0 C 78 % 1015,5 hPa 0,0 l/m 9,7 km/h (2 Bft) O-NO 75 0 min 0 W/m -6,3 C -6,5 C 9,7 km/h (2 Bft)
08.02.2010 10:28 -3,0 C 78 % 1015,5 hPa 0,0 l/m 12,0 km/h (2 Bft) O 95 0 min 0 W/m -6,3 C -8,5 C 12,0 km/h (2 Bft)
08.02.2010 10:33 -2,9 C 78 % 1015,5 hPa 0,0 l/m 16,5 km/h (3 Bft) O 80 0 min 0 W/m -6,2 C -11,4 C 16,5 km/h (3 Bft)
08.02.2010 10:38 -2,9 C 78 % 1015,5 hPa 0,0 l/m 13,8 km/h (3 Bft) O-NO 75 0 min 0 W/m -6,2 C -9,7 C 13,8 km/h (3 Bft)
08.02.2010 10:43 -2,9 C 78 % 1015,5 hPa 0,0 l/m 16,3 km/h (3 Bft) O 90 0 min 0 W/m -6,2 C -11,3 C 16,3 km/h (3 Bft)
08.02.2010 10:48 -2,8 C 78 % 1015,5 hPa 0,0 l/m 14,0 km/h (3 Bft) O-SO 105 0 min 0 W/m -6,1 C -9,7 C 14,0 km/h (3 Bft)
08.02.2010 10:53 -2,8 C 77 % 1015,5 hPa 0,0 l/m 12,5 km/h (2 Bft) SO 130 0 min 0 W/m -6,3 C -8,6 C 12,5 km/h (2 Bft)
08.02.2010 10:58 -2,8 C 77 % 1015,5 hPa 0,0 l/m 13,1 km/h (3 Bft) O-SO 105 0 min 0 W/m -6,3 C -9,1 C 13,1 km/h (3 Bft)
08.02.2010 11:03 -2,7 C 78 % 1015,5 hPa 0,0 l/m 11,1 km/h (2 Bft) O 100 0 min 0 W/m -6,0 C -7,4 C 11,1 km/h (2 Bft)
08.02.2010 11:08 -2,7 C 77 % 1015,5 hPa 0,0 l/m 12,6 km/h (3 Bft) O 85 0 min 0 W/m -6,2 C -8,6 C 12,6 km/h (3 Bft)
08.02.2010 11:13 -2,6 C 77 % 1015,5 hPa 0,0 l/m 10,9 km/h (2 Bft) O-NO 75 0 min 0 W/m -6,1 C -7,1 C 10,9 km/h (2 Bft)
08.02.2010 11:18 -2,6 C 77 % 1015,5 hPa 0,0 l/m 10,9 km/h (2 Bft) O-NO 75 0 min 0 W/m -6,1 C -7,1 C 10,9 km/h (2 Bft)
08.02.2010 11:23 -2,6 C 77 % 1015,5 hPa 0,0 l/m 12,4 km/h (2 Bft) O 95 0 min 0 W/m -6,1 C -8,3 C 12,4 km/h (2 Bft)
08.02.2010 11:28 -2,5 C 77 % 1015,5 hPa 0,0 l/m 13,1 km/h (3 Bft) O 95 0 min 0 W/m -6,0 C -8,7 C 13,1 km/h (3 Bft)
08.02.2010 11:33 -2,6 C 77 % 1015,5 hPa 0,0 l/m 16,5 km/h (3 Bft) O 95 0 min 0 W/m -6,1 C -11,1 C 16,5 km/h (3 Bft)
08.02.2010 11:38 -2,5 C 77 % 1015,5 hPa 0,0 l/m 9,0 km/h (2 Bft) O 90 0 min 0 W/m -6,0 C -5,3 C 9,0 km/h (2 Bft)
08.02.2010 11:43 -2,5 C 77 % 1015,5 hPa 0,0 l/m 3,0 km/h (1 Bft) O-SO 115 0 min 0 W/m -6,0 C -2,5 C 3,0 km/h (1 Bft)
08.02.2010 11:48 -2,5 C 76 % 1015,5 hPa 0,0 l/m 19,5 km/h (3 Bft) O 95 0 min 0 W/m -6,1 C -12,6 C 19,5 km/h (3 Bft)
08.02.2010 11:53 -2,5 C 76 % 1015,5 hPa 0,0 l/m 13,3 km/h (3 Bft) O-SO 115 0 min 0 W/m -6,1 C -8,9 C 13,3 km/h (3 Bft)
08.02.2010 11:58 -2,5 C 76 % 1015,5 hPa 0,0 l/m 14,5 km/h (3 Bft) O 85 0 min 0 W/m -6,1 C -9,7 C 14,5 km/h (3 Bft)
08.02.2010 12:03 -2,4 C 76 % 1015,5 hPa 0,0 l/m 11,9 km/h (2 Bft) O 100 0 min 0 W/m -6,0 C -7,7 C 11,9 km/h (2 Bft)
08.02.2010 12:08 -2,4 C 76 % 1015,5 hPa 0,0 l/m 18,1 km/h (3 Bft) O 100 0 min 0 W/m -6,0 C -11,7 C 18,1 km/h (3 Bft)
08.02.2010 12:13 -2,4 C 76 % 1015,5 hPa 0,0 l/m 12,1 km/h (2 Bft) O 90 0 min 0 W/m -6,0 C -7,8 C 12,1 km/h (2 Bft)
08.02.2010 12:18 -2,3 C 76 % 1015,5 hPa 0,0 l/m 13,4 km/h (3 Bft) O 95 0 min 0 W/m -5,9 C -8,7 C 13,4 km/h (3 Bft)
08.02.2010 12:23 -2,3 C 76 % 1014,5 hPa 0,0 l/m 13,6 km/h (3 Bft) O-NO 60 0 min 0 W/m -5,9 C -8,8 C 13,6 km/h (3 Bft)
08.02.2010 12:28 -2,3 C 76 % 1014,5 hPa 0,0 l/m 11,5 km/h (2 Bft) O 80 0 min 0 W/m -5,9 C -7,3 C 11,5 km/h (2 Bft)
08.02.2010 12:33 -2,3 C 76 % 1014,5 hPa 0,0 l/m 11,3 km/h (2 Bft) O 100 0 min 0 W/m -5,9 C -7,1 C 11,3 km/h (2 Bft)
08.02.2010 12:38 -2,2 C 76 % 1014,5 hPa 0,0 l/m 8,5 km/h (2 Bft) O 95 0 min 0 W/m -5,8 C -4,5 C 8,5 km/h (2 Bft)
08.02.2010 12:43 -2,0 C 76 % 1014,5 hPa 0,0 l/m 12,0 km/h (2 Bft) O-SO 110 0 min 0 W/m -5,6 C -7,3 C 12,0 km/h (2 Bft)
08.02.2010 12:48 -1,9 C 76 % 1014,5 hPa 0,0 l/m 7,6 km/h (2 Bft) O-SO 110 0 min 0 W/m -5,6 C -3,2 C 7,6 km/h (2 Bft)
08.02.2010 12:53 -1,8 C 74 % 1014,5 hPa 0,0 l/m 12,4 km/h (2 Bft) O 100 0 min 0 W/m -5,8 C -7,4 C 12,4 km/h (2 Bft)
08.02.2010 12:58 -1,8 C 74 % 1014,5 hPa 0,0 l/m 0,3 km/h (0 Bft) O-SO 105 0 min 0 W/m -5,8 C -1,8 C 0,3 km/h (0 Bft)
08.02.2010 13:03 -1,8 C 74 % 1014,5 hPa 0,0 l/m 12,6 km/h (3 Bft) O-SO 105 0 min 0 W/m -5,8 C -7,5 C 12,6 km/h (3 Bft)
08.02.2010 13:08 -1,8 C 73 % 1014,5 hPa 0,0 l/m 6,5 km/h (2 Bft) O-SO 110 0 min 0 W/m -6,0 C -1,9 C 6,5 km/h (2 Bft)
08.02.2010 13:13 -1,9 C 73 % 1014,5 hPa 0,0 l/m 13,3 km/h (3 Bft) O-SO 115 0 min 0 W/m -6,1 C -8,1 C 13,3 km/h (3 Bft)
08.02.2010 13:18 -1,9 C 73 % 1014,5 hPa 0,0 l/m 15,1 km/h (3 Bft) S-SO 155 0 min 0 W/m -6,1 C -9,3 C 15,1 km/h (3 Bft)
08.02.2010 13:23 -1,9 C 72 % 1014,5 hPa 0,0 l/m 11,1 km/h (2 Bft) SO 145 0 min 0 W/m -6,3 C -6,5 C 11,1 km/h (2 Bft)
08.02.2010 13:28 -2,0 C 73 % 1014,5 hPa 0,0 l/m 16,6 km/h (3 Bft) SO 145 0 min 0 W/m -6,2 C -10,4 C 16,6 km/h (3 Bft)
08.02.2010 13:33 -2,0 C 72 % 1014,5 hPa 0,0 l/m 13,6 km/h (3 Bft) S-SO 160 0 min 0 W/m -6,4 C -8,5 C 13,6 km/h (3 Bft)
08.02.2010 13:38 -2,0 C 72 % 1014,5 hPa 0,0 l/m 15,8 km/h (3 Bft) O-SO 115 0 min 0 W/m -6,4 C -9,9 C 15,8 km/h (3 Bft)
08.02.2010 13:43 -2,0 C 72 % 1014,5 hPa 0,0 l/m 12,3 km/h (2 Bft) O-SO 110 0 min 0 W/m -6,4 C -7,5 C 12,3 km/h (2 Bft)
08.02.2010 13:48 -2,0 C 72 % 1014,5 hPa 0,0 l/m 12,6 km/h (3 Bft) SO 145 0 min 0 W/m -6,4 C -7,8 C 12,6 km/h (3 Bft)
08.02.2010 13:53 -2,0 C 72 % 1013,5 hPa 0,0 l/m 11,6 km/h (2 Bft) SO 145 0 min 0 W/m -6,4 C -7,0 C 11,6 km/h (2 Bft)
08.02.2010 13:58 -2,0 C 72 % 1013,5 hPa 0,0 l/m 9,3 km/h (2 Bft) SO 125 0 min 0 W/m -6,4 C -5,0 C 9,3 km/h (2 Bft)
08.02.2010 14:03 -2,0 C 72 % 1013,5 hPa 0,0 l/m 8,1 km/h (2 Bft) SO 140 0 min 0 W/m -6,4 C -3,8 C 8,1 km/h (2 Bft)
08.02.2010 14:08 -2,1 C 71 % 1013,5 hPa 0,0 l/m 10,0 km/h (2 Bft) S-SO 155 0 min 0 W/m -6,6 C -5,8 C 10,0 km/h (2 Bft)
08.02.2010 14:13 -2,1 C 72 % 1013,5 hPa 0,0 l/m 11,8 km/h (2 Bft) S-SO 165 0 min 0 W/m -6,5 C -7,3 C 11,8 km/h (2 Bft)
08.02.2010 14:18 -2,0 C 71 % 1013,5 hPa 0,0 l/m 7,2 km/h (2 Bft) SO 135 0 min 0 W/m -6,5 C -2,9 C 7,2 km/h (2 Bft)
08.02.2010 14:23 -2,1 C 71 % 1013,5 hPa 0,0 l/m 9,6 km/h (2 Bft) S-SO 155 0 min 0 W/m -6,6 C -5,4 C 9,6 km/h (2 Bft)
08.02.2010 14:28 -2,0 C 71 % 1013,5 hPa 0,0 l/m 12,5 km/h (2 Bft) SO 135 0 min 0 W/m -6,5 C -7,7 C 12,5 km/h (2 Bft)
08.02.2010 14:33 -2,1 C 72 % 1013,5 hPa 0,0 l/m 11,1 km/h (2 Bft) O 100 0 min 0 W/m -6,5 C -6,7 C 11,1 km/h (2 Bft)
08.02.2010 14:38 -2,1 C 71 % 1013,5 hPa 0,0 l/m 13,8 km/h (3 Bft) SO 135 0 min 0 W/m -6,6 C -8,7 C 13,8 km/h (3 Bft)
08.02.2010 14:43 -2,1 C 72 % 1013,5 hPa 0,0 l/m 9,4 km/h (2 Bft) SO 145 0 min 0 W/m -6,5 C -5,2 C 9,4 km/h (2 Bft)
08.02.2010 14:48 -2,1 C 71 % 1013,5 hPa 0,0 l/m 12,9 km/h (3 Bft) SO 145 0 min 0 W/m -6,6 C -8,1 C 12,9 km/h (3 Bft)
08.02.2010 14:53 -2,0 C 72 % 1013,5 hPa 0,0 l/m 7,8 km/h (2 Bft) S-SO 160 0 min 0 W/m -6,4 C -3,5 C 7,8 km/h (2 Bft)
08.02.2010 14:58 -2,0 C 71 % 1013,5 hPa 0,0 l/m 11,6 km/h (2 Bft) SO 135 0 min 0 W/m -6,5 C -7,0 C 11,6 km/h (2 Bft)
08.02.2010 15:03 -1,9 C 71 % 1013,5 hPa 0,0 l/m 15,1 km/h (3 Bft) SO 135 0 min 0 W/m -6,4 C -9,3 C 15,1 km/h (3 Bft)
08.02.2010 15:08 -2,0 C 71 % 1012,5 hPa 0,0 l/m 13,3 km/h (3 Bft) SO 145 0 min 0 W/m -6,5 C -8,3 C 13,3 km/h (3 Bft)
08.02.2010 15:13 -2,1 C 71 % 1012,5 hPa 0,0 l/m 14,7 km/h (3 Bft) O-SO 120 0 min 0 W/m -6,6 C -9,3 C 14,7 km/h (3 Bft)
08.02.2010 15:18 -2,1 C 71 % 1012,5 hPa 0,0 l/m 8,9 km/h (2 Bft) SO 145 0 min 0 W/m -6,6 C -4,8 C 8,9 km/h (2 Bft)
08.02.2010 15:23 -2,2 C 71 % 1012,5 hPa 0,0 l/m 12,0 km/h (2 Bft) SO 145 0 min 0 W/m -6,7 C -7,5 C 12,0 km/h (2 Bft)
08.02.2010 15:28 -2,0 C 71 % 1012,5 hPa 0,0 l/m 11,0 km/h (2 Bft) O 80 0 min 0 W/m -6,5 C -6,5 C 11,0 km/h (2 Bft)
08.02.2010 15:33 -2,0 C 71 % 1012,5 hPa 0,0 l/m 12,7 km/h (3 Bft) O 95 0 min 0 W/m -6,5 C -7,8 C 12,7 km/h (3 Bft)
08.02.2010 15:38 -2,0 C 71 % 1012,5 hPa 0,0 l/m 5,7 km/h (2 Bft) O 90 0 min 0 W/m -6,5 C -2,0 C 5,7 km/h (2 Bft)
08.02.2010 15:43 -1,9 C 71 % 1012,5 hPa 0,0 l/m 3,3 km/h (1 Bft) O-SO 115 0 min 0 W/m -6,4 C -1,9 C 3,3 km/h (1 Bft)
08.02.2010 15:48 -2,0 C 71 % 1012,5 hPa 0,0 l/m 10,6 km/h (2 Bft) S-SO 150 0 min 0 W/m -6,5 C -6,2 C 10,6 km/h (2 Bft)
08.02.2010 15:53 -2,0 C 70 % 1012,5 hPa 0,0 l/m 1,9 km/h (1 Bft) O-SO 115 0 min 0 W/m -6,7 C -2,0 C 1,9 km/h (1 Bft)
08.02.2010 15:58 -2,0 C 70 % 1012,5 hPa 0,0 l/m 9,2 km/h (2 Bft) O-NO 70 0 min 0 W/m -6,7 C -4,9 C 9,2 km/h (2 Bft)
08.02.2010 16:03 -2,0 C 71 % 1012,5 hPa 0,0 l/m 9,3 km/h (2 Bft) SO 130 0 min 0 W/m -6,5 C -5,0 C 9,3 km/h (2 Bft)
08.02.2010 16:08 -2,0 C 70 % 1012,5 hPa 0,0 l/m 7,9 km/h (2 Bft) O-SO 115 0 min 0 W/m -6,7 C -3,6 C 7,9 km/h (2 Bft)
08.02.2010 16:13 -2,0 C 70 % 1012,5 hPa 0,0 l/m 8,1 km/h (2 Bft) SO 125 0 min 0 W/m -6,7 C -3,8 C 8,1 km/h (2 Bft)
08.02.2010 16:18 -2,0 C 71 % 1012,5 hPa 0,0 l/m 7,4 km/h (2 Bft) SO 135 0 min 0 W/m -6,5 C -3,1 C 7,4 km/h (2 Bft)
08.02.2010 16:23 -1,9 C 71 % 1012,5 hPa 0,0 l/m 3,9 km/h (1 Bft) O 90 0 min 0 W/m -6,4 C -1,9 C 3,9 km/h (1 Bft)
08.02.2010 16:28 -2,0 C 71 % 1012,5 hPa 0,0 l/m 13,9 km/h (3 Bft) O 85 0 min 0 W/m -6,5 C -8,7 C 13,9 km/h (3 Bft)
08.02.2010 16:33 -2,0 C 70 % 1012,5 hPa 0,0 l/m 11,3 km/h (2 Bft) O-SO 115 0 min 0 W/m -6,7 C -6,8 C 11,3 km/h (2 Bft)
08.02.2010 16:38 -2,0 C 70 % 1012,5 hPa 0,0 l/m 12,1 km/h (2 Bft) SO 130 0 min 0 W/m -6,7 C -7,4 C 12,1 km/h (2 Bft)
08.02.2010 16:43 -2,0 C 70 % 1012,5 hPa 0,0 l/m 8,3 km/h (2 Bft) SO 135 0 min 0 W/m -6,7 C -4,1 C 8,3 km/h (2 Bft)
08.02.2010 16:48 -2,1 C 70 % 1012,5 hPa 0,0 l/m 9,2 km/h (2 Bft) SO 125 0 min 0 W/m -6,8 C -5,0 C 9,2 km/h (2 Bft)
08.02.2010 16:53 -2,1 C 70 % 1012,5 hPa 0,0 l/m 12,5 km/h (2 Bft) SO 140 0 min 0 W/m -6,8 C -7,8 C 12,5 km/h (2 Bft)
08.02.2010 16:58 -2,2 C 70 % 1012,5 hPa 0,0 l/m 14,5 km/h (3 Bft) S 170 0 min 0 W/m -6,9 C -9,3 C 14,5 km/h (3 Bft)
08.02.2010 17:03 -2,2 C 70 % 1012,5 hPa 0,0 l/m 14,1 km/h (3 Bft) SO 125 0 min 0 W/m -6,9 C -9,1 C 14,1 km/h (3 Bft)
08.02.2010 17:08 -2,2 C 70 % 1012,5 hPa 0,0 l/m 12,3 km/h (2 Bft) O-SO 115 0 min 0 W/m -6,9 C -7,8 C 12,3 km/h (2 Bft)
08.02.2010 17:13 -2,2 C 71 % 1012,5 hPa 0,0 l/m 13,4 km/h (3 Bft) O 90 0 min 0 W/m -6,7 C -8,6 C 13,4 km/h (3 Bft)
08.02.2010 17:18 -2,3 C 71 % 1012,5 hPa 0,0 l/m 11,0 km/h (2 Bft) O 90 0 min 0 W/m -6,8 C -6,8 C 11,0 km/h (2 Bft)
08.02.2010 17:23 -2,2 C 71 % 1012,5 hPa 0,0 l/m 2,1 km/h (1 Bft) O-SO 120 0 min 0 W/m -6,7 C -2,2 C 2,1 km/h (1 Bft)
08.02.2010 17:28 -2,3 C 71 % 1012,5 hPa 0,0 l/m 4,5 km/h (1 Bft) SO 130 0 min 0 W/m -6,8 C -2,3 C 4,5 km/h (1 Bft)
08.02.2010 17:33 -2,3 C 71 % 1012,5 hPa 0,0 l/m 9,5 km/h (2 Bft) O 95 0 min 0 W/m -6,8 C -5,5 C 9,5 km/h (2 Bft)
08.02.2010 17:38 -2,3 C 71 % 1012,5 hPa 0,0 l/m 8,5 km/h (2 Bft) O-SO 105 0 min 0 W/m -6,8 C -4,6 C 8,5 km/h (2 Bft)
08.02.2010 17:43 -2,3 C 71 % 1012,5 hPa 0,0 l/m 10,2 km/h (2 Bft) O 95 0 min 0 W/m -6,8 C -6,2 C 10,2 km/h (2 Bft)
08.02.2010 17:48 -2,3 C 71 % 1012,5 hPa 0,0 l/m 16,1 km/h (3 Bft) O 100 0 min 0 W/m -6,8 C -10,5 C 16,1 km/h (3 Bft)
08.02.2010 17:53 -2,3 C 71 % 1012,5 hPa 0,0 l/m 15,1 km/h (3 Bft) O 85 0 min 0 W/m -6,8 C -9,8 C 15,1 km/h (3 Bft)
08.02.2010 17:58 -2,4 C 71 % 1012,5 hPa 0,0 l/m 12,8 km/h (3 Bft) O-NO 75 0 min 0 W/m -6,9 C -8,4 C 12,8 km/h (3 Bft)
08.02.2010 18:03 -2,4 C 71 % 1012,5 hPa 0,0 l/m 15,3 km/h (3 Bft) O 95 0 min 0 W/m -6,9 C -10,1 C 15,3 km/h (3 Bft)
08.02.2010 18:08 -2,4 C 72 % 1012,5 hPa 0,0 l/m 8,5 km/h (2 Bft) O-SO 105 0 min 0 W/m -6,7 C -4,7 C 8,5 km/h (2 Bft)
08.02.2010 18:13 -2,3 C 72 % 1012,5 hPa 0,0 l/m 12,3 km/h (2 Bft) O 90 0 min 0 W/m -6,6 C -7,9 C 12,3 km/h (2 Bft)
08.02.2010 18:18 -2,3 C 72 % 1012,5 hPa 0,0 l/m 15,5 km/h (3 Bft) O 95 0 min 0 W/m -6,6 C -10,1 C 15,5 km/h (3 Bft)
08.02.2010 18:23 -2,4 C 71 % 1012,5 hPa 0,0 l/m 16,3 km/h (3 Bft) O 85 0 min 0 W/m -6,9 C -10,7 C 16,3 km/h (3 Bft)
08.02.2010 18:28 -2,5 C 71 % 1011,5 hPa 0,0 l/m 13,0 km/h (3 Bft) O 80 0 min 0 W/m -7,0 C -8,6 C 13,0 km/h (3 Bft)
08.02.2010 18:33 -2,5 C 72 % 1011,5 hPa 0,0 l/m 8,4 km/h (2 Bft) O 90 0 min 0 W/m -6,8 C -4,7 C 8,4 km/h (2 Bft)
08.02.2010 18:38 -2,5 C 71 % 1012,5 hPa 0,0 l/m 16,6 km/h (3 Bft) O 90 0 min 0 W/m -7,0 C -11,0 C 16,6 km/h (3 Bft)
08.02.2010 18:43 -2,5 C 72 % 1012,5 hPa 0,0 l/m 7,0 km/h (2 Bft) O-NO 75 0 min 0 W/m -6,8 C -3,2 C 7,0 km/h (2 Bft)
08.02.2010 18:48 -2,5 C 72 % 1011,5 hPa 0,0 l/m 14,3 km/h (3 Bft) O 95 0 min 0 W/m -6,8 C -9,5 C 14,3 km/h (3 Bft)
08.02.2010 18:53 -2,6 C 71 % 1012,5 hPa 0,0 l/m 14,3 km/h (3 Bft) O 95 0 min 0 W/m -7,1 C -9,7 C 14,3 km/h (3 Bft)
08.02.2010 18:58 -2,6 C 72 % 1012,5 hPa 0,0 l/m 10,3 km/h (2 Bft) O 95 0 min 0 W/m -6,9 C -6,6 C 10,3 km/h (2 Bft)
08.02.2010 19:03 -2,6 C 72 % 1011,5 hPa 0,0 l/m 16,0 km/h (3 Bft) O 85 0 min 0 W/m -6,9 C -10,8 C 16,0 km/h (3 Bft)
08.02.2010 19:08 -2,6 C 72 % 1011,5 hPa 0,0 l/m 10,0 km/h (2 Bft) O 85 0 min 0 W/m -6,9 C -6,3 C 10,0 km/h (2 Bft)
08.02.2010 19:13 -2,5 C 72 % 1011,5 hPa 0,0 l/m 13,5 km/h (3 Bft) O 85 0 min 0 W/m -6,8 C -9,0 C 13,5 km/h (3 Bft)
08.02.2010 19:18 -2,6 C 71 % 1011,5 hPa 0,0 l/m 8,9 km/h (2 Bft) O-NO 75 0 min 0 W/m -7,1 C -5,3 C 8,9 km/h (2 Bft)
08.02.2010 19:23 -2,6 C 71 % 1011,5 hPa 0,0 l/m 12,1 km/h (2 Bft) O 90 0 min 0 W/m -7,1 C -8,1 C 12,1 km/h (2 Bft)
08.02.2010 19:28 -2,6 C 71 % 1011,5 hPa 0,0 l/m 11,1 km/h (2 Bft) O 90 0 min 0 W/m -7,1 C -7,3 C 11,1 km/h (2 Bft)
08.02.2010 19:33 -2,6 C 71 % 1011,5 hPa 0,0 l/m 15,3 km/h (3 Bft) O 100 0 min 0 W/m -7,1 C -10,3 C 15,3 km/h (3 Bft)
08.02.2010 19:38 -2,6 C 71 % 1011,5 hPa 0,0 l/m 10,1 km/h (2 Bft) O-SO 105 0 min 0 W/m -7,1 C -6,4 C 10,1 km/h (2 Bft)
08.02.2010 19:42 -2,6 C 71 % 1011,5 hPa 0,0 l/m 10,5 km/h (2 Bft) O-SO 110 0 min 0 W/m -7,1 C -6,8 C 10,5 km/h (2 Bft)
08.02.2010 19:48 -2,6 C 71 % 1011,5 hPa 0,0 l/m 12,4 km/h (2 Bft) O 90 0 min 0 W/m -7,1 C -8,3 C 12,4 km/h (2 Bft)
08.02.2010 19:53 -2,6 C 71 % 1011,5 hPa 0,0 l/m 14,7 km/h (3 Bft) O-SO 115 0 min 0 W/m -7,1 C -9,9 C 14,7 km/h (3 Bft)
08.02.2010 19:58 -2,6 C 71 % 1011,5 hPa 0,0 l/m 12,0 km/h (2 Bft) SO 130 0 min 0 W/m -7,1 C -8,0 C 12,0 km/h (2 Bft)
08.02.2010 20:03 -2,6 C 71 % 1011,5 hPa 0,0 l/m 12,3 km/h (2 Bft) SO 125 0 min 0 W/m -7,1 C -8,2 C 12,3 km/h (2 Bft)
08.02.2010 20:08 -2,6 C 71 % 1011,5 hPa 0,0 l/m 12,9 km/h (3 Bft) O-SO 115 0 min 0 W/m -7,1 C -8,7 C 12,9 km/h (3 Bft)
08.02.2010 20:13 -2,6 C 71 % 1011,5 hPa 0,0 l/m 12,9 km/h (3 Bft) O-SO 115 0 min 0 W/m -7,1 C -8,7 C 12,9 km/h (3 Bft)
08.02.2010 20:18 -2,6 C 71 % 1011,5 hPa 0,0 l/m 7,5 km/h (2 Bft) O 95 0 min 0 W/m -7,1 C -3,8 C 7,5 km/h (2 Bft)
08.02.2010 20:23 -2,6 C 71 % 1011,5 hPa 0,0 l/m 9,2 km/h (2 Bft) SO 125 0 min 0 W/m -7,1 C -5,6 C 9,2 km/h (2 Bft)
08.02.2010 20:28 -2,6 C 71 % 1011,5 hPa 0,0 l/m 9,4 km/h (2 Bft) O-SO 115 0 min 0 W/m -7,1 C -5,8 C 9,4 km/h (2 Bft)
08.02.2010 20:32 -2,6 C 71 % 1011,5 hPa 0,0 l/m 8,3 km/h (2 Bft) O 95 0 min 0 W/m -7,1 C -4,7 C 8,3 km/h (2 Bft)
08.02.2010 20:38 -2,6 C 71 % 1011,5 hPa 0,0 l/m 7,7 km/h (2 Bft) SO 125 0 min 0 W/m -7,1 C -4,1 C 7,7 km/h (2 Bft)
08.02.2010 20:43 -2,6 C 71 % 1011,5 hPa 0,0 l/m 13,7 km/h (3 Bft) O-SO 105 0 min 0 W/m -7,1 C -9,3 C 13,7 km/h (3 Bft)
08.02.2010 20:48 -2,6 C 71 % 1011,5 hPa 0,0 l/m 9,5 km/h (2 Bft) O 80 0 min 0 W/m -7,1 C -5,9 C 9,5 km/h (2 Bft)
08.02.2010 20:53 -2,6 C 71 % 1011,5 hPa 0,0 l/m 6,1 km/h (2 Bft) O 90 0 min 0 W/m -7,1 C -2,6 C 6,1 km/h (2 Bft)
08.02.2010 20:58 -2,6 C 70 % 1011,5 hPa 0,0 l/m 7,9 km/h (2 Bft) S-SO 150 0 min 0 W/m -7,3 C -4,3 C 7,9 km/h (2 Bft)
08.02.2010 21:03 -2,7 C 70 % 1011,5 hPa 0,0 l/m 5,6 km/h (2 Bft) S-SO 160 0 min 0 W/m -7,4 C -2,7 C 5,6 km/h (2 Bft)
08.02.2010 21:08 -2,8 C 70 % 1011,5 hPa 0,0 l/m 10,3 km/h (2 Bft) S-SO 150 0 min 0 W/m -7,5 C -6,8 C 10,3 km/h (2 Bft)
08.02.2010 21:13 -2,8 C 71 % 1011,5 hPa 0,0 l/m 12,8 km/h (3 Bft) O-SO 115 0 min 0 W/m -7,3 C -8,8 C 12,8 km/h (3 Bft)
08.02.2010 21:18 -2,8 C 71 % 1011,5 hPa 0,0 l/m 12,3 km/h (2 Bft) SO 125 0 min 0 W/m -7,3 C -8,5 C 12,3 km/h (2 Bft)
08.02.2010 21:23 -2,8 C 71 % 1011,5 hPa 0,0 l/m 6,8 km/h (2 Bft) S-SO 160 0 min 0 W/m -7,3 C -3,2 C 6,8 km/h (2 Bft)
08.02.2010 21:28 -2,8 C 71 % 1011,5 hPa 0,0 l/m 10,1 km/h (2 Bft) S-SO 155 0 min 0 W/m -7,3 C -6,6 C 10,1 km/h (2 Bft)
08.02.2010 21:33 -2,9 C 70 % 1011,5 hPa 0,0 l/m 15,6 km/h (3 Bft) S-SO 160 0 min 0 W/m -7,6 C -10,9 C 15,6 km/h (3 Bft)
08.02.2010 21:38 -3,0 C 70 % 1011,5 hPa 0,0 l/m 12,5 km/h (2 Bft) SO 130 0 min 0 W/m -7,7 C -8,8 C 12,5 km/h (2 Bft)
08.02.2010 21:43 -3,0 C 71 % 1011,5 hPa 0,0 l/m 10,8 km/h (2 Bft) S-SO 150 0 min 0 W/m -7,5 C -7,5 C 10,8 km/h (2 Bft)
08.02.2010 21:48 -3,0 C 71 % 1011,5 hPa 0,0 l/m 5,0 km/h (1 Bft) S-SO 150 0 min 0 W/m -7,5 C -3,0 C 5,0 km/h (1 Bft)
08.02.2010 21:53 -2,9 C 71 % 1011,5 hPa 0,0 l/m 6,4 km/h (2 Bft) S-SO 155 0 min 0 W/m -7,4 C -2,9 C 6,4 km/h (2 Bft)
08.02.2010 21:58 -2,9 C 71 % 1011,5 hPa 0,0 l/m 11,3 km/h (2 Bft) SO 125 0 min 0 W/m -7,4 C -7,8 C 11,3 km/h (2 Bft)
08.02.2010 22:03 -3,0 C 71 % 1011,5 hPa 0,0 l/m 8,4 km/h (2 Bft) S-SO 150 0 min 0 W/m -7,5 C -5,2 C 8,4 km/h (2 Bft)
08.02.2010 22:08 -3,0 C 71 % 1011,5 hPa 0,0 l/m 7,5 km/h (2 Bft) S-SO 150 0 min 0 W/m -7,5 C -4,2 C 7,5 km/h (2 Bft)
08.02.2010 22:13 -2,9 C 71 % 1011,5 hPa 0,0 l/m 8,1 km/h (2 Bft) S-SO 165 0 min 0 W/m -7,4 C -4,8 C 8,1 km/h (2 Bft)
08.02.2010 22:18 -3,0 C 71 % 1011,5 hPa 0,0 l/m 11,4 km/h (2 Bft) S-SO 160 0 min 0 W/m -7,5 C -8,0 C 11,4 km/h (2 Bft)
08.02.2010 22:23 -3,0 C 71 % 1011,5 hPa 0,0 l/m 6,3 km/h (2 Bft) S-SO 165 0 min 0 W/m -7,5 C -3,0 C 6,3 km/h (2 Bft)
08.02.2010 22:28 -2,9 C 71 % 1011,5 hPa 0,0 l/m 11,4 km/h (2 Bft) S-SO 150 0 min 0 W/m -7,4 C -7,9 C 11,4 km/h (2 Bft)
08.02.2010 22:33 -2,9 C 71 % 1010,5 hPa 0,0 l/m 8,7 km/h (2 Bft) O-SO 110 0 min 0 W/m -7,4 C -5,4 C 8,7 km/h (2 Bft)
08.02.2010 22:38 -2,8 C 71 % 1011,5 hPa 0,0 l/m 5,9 km/h (2 Bft) O-SO 110 0 min 0 W/m -7,3 C -2,8 C 5,9 km/h (2 Bft)
08.02.2010 22:43 -2,8 C 71 % 1010,5 hPa 0,0 l/m 10,8 km/h (2 Bft) SO 135 0 min 0 W/m -7,3 C -7,2 C 10,8 km/h (2 Bft)
08.02.2010 22:48 -2,9 C 71 % 1010,5 hPa 0,0 l/m 6,1 km/h (2 Bft) SO 145 0 min 0 W/m -7,4 C -2,9 C 6,1 km/h (2 Bft)
08.02.2010 22:53 -2,8 C 71 % 1010,5 hPa 0,0 l/m 6,3 km/h (2 Bft) SO 130 0 min 0 W/m -7,3 C -2,8 C 6,3 km/h (2 Bft)
08.02.2010 22:58 -2,8 C 71 % 1010,5 hPa 0,0 l/m 6,3 km/h (2 Bft) SO 130 0 min 0 W/m -7,3 C -2,8 C 6,3 km/h (2 Bft)
08.02.2010 23:03 -2,7 C 71 % 1010,5 hPa 0,0 l/m 10,0 km/h (2 Bft) SO 130 0 min 0 W/m -7,2 C -6,4 C 10,0 km/h (2 Bft)
08.02.2010 23:08 -2,6 C 72 % 1010,5 hPa 0,0 l/m 5,3 km/h (1 Bft) SO 135 0 min 0 W/m -6,9 C -2,6 C 5,3 km/h (1 Bft)
08.02.2010 23:13 -2,6 C 72 % 1010,5 hPa 0,0 l/m 8,5 km/h (2 Bft) SO 135 0 min 0 W/m -6,9 C -4,9 C 8,5 km/h (2 Bft)
08.02.2010 23:18 -2,6 C 71 % 1010,5 hPa 0,0 l/m 6,5 km/h (2 Bft) SO 135 0 min 0 W/m -7,1 C -2,7 C 6,5 km/h (2 Bft)
08.02.2010 23:23 -2,7 C 71 % 1010,5 hPa 0,0 l/m 7,6 km/h (2 Bft) SO 130 0 min 0 W/m -7,2 C -4,0 C 7,6 km/h (2 Bft)
08.02.2010 23:28 -2,7 C 71 % 1010,5 hPa 0,0 l/m 7,6 km/h (2 Bft) O-SO 120 0 min 0 W/m -7,2 C -4,0 C 7,6 km/h (2 Bft)
08.02.2010 23:33 -2,8 C 71 % 1010,5 hPa 0,0 l/m 9,3 km/h (2 Bft) O-SO 105 0 min 0 W/m -7,3 C -5,9 C 9,3 km/h (2 Bft)
08.02.2010 23:38 -2,7 C 71 % 1010,5 hPa 0,0 l/m 4,6 km/h (1 Bft) S-SO 155 0 min 0 W/m -7,2 C -2,7 C 4,6 km/h (1 Bft)
08.02.2010 23:43 -2,7 C 71 % 1010,5 hPa 0,0 l/m 0,8 km/h (0 Bft) S-SO 155 0 min 0 W/m -7,2 C -2,7 C 0,8 km/h (0 Bft)
08.02.2010 23:48 -2,6 C 72 % 1010,5 hPa 0,0 l/m 5,6 km/h (2 Bft) S-SO 155 0 min 0 W/m -6,9 C -2,6 C 5,6 km/h (2 Bft)
08.02.2010 23:53 -2,6 C 71 % 1010,5 hPa 0,0 l/m 9,6 km/h (2 Bft) S 180 0 min 0 W/m -7,1 C -6,0 C 9,6 km/h (2 Bft)
08.02.2010 23:58 -2,6 C 71 % 1010,5 hPa 0,0 l/m 9,6 km/h (2 Bft) S-SO 155 0 min 0 W/m -7,1 C -6,0 C 9,6 km/h (2 Bft)
_ Min-Zeit 05:18 15:53 22:33 - 12:58 - - - - 05:18 04:02 12:58
Minimum _ -5,7 C 70 % 1010,5 hPa - 0,3 km/h (0 Bft) - - - - -8,7 C -16,3 C 0,3 km/h (0 Bft)
_ Max-Zeit 12:53 06:33 00:02 00:02 02:07 - - 00:02 00:02 12:48 12:58 02:07
Maximum _ -1,8 C 81 % 1020,5 hPa 0,0 l/m 22,9 km/h
O-SO (4 Bft)
- - 0 min 0 W/m -5,6 C -1,8 C 22,9 km/h
O-SO (4 Bft)
Durchschnitt _ -3,2 C 75 % 1015,0 hPa #0,0 l/m 12,1 km/h (2 Bft) O-SO - #0 min. 0 W/m -7,0 C -8,6 C 12,1 km/h (2 Bft)
copyright by Holger Just